| time (UTC) | temp F | wind direction | speed knots | gust knots | rain 1hr in | rain 24hr in | rain mn in | humidity % | barometer mb |
| 20260510033604 | 74 | 126 | 7.8 | 11.3 | 0.00 | 0.00 | 0.00 | 58 | 1028.2 |
| 20260510033104 | 73 | 98 | 3.5 | 7.8 | 0.00 | 0.00 | 0.00 | 59 | 1028.3 |
| 20260510032604 | 73 | 119 | 3.5 | 8.7 | 0.00 | 0.00 | 0.00 | 58 | 1028.4 |
| 20260510032104 | 73 | 74 | 2.6 | 7.8 | 0.00 | 0.00 | 0.00 | 58 | 1028.4 |
| 20260510031604 | 73 | 88 | 4.3 | 8.7 | 0.00 | 0.00 | 0.00 | 58 | 1028.4 |
| 20260510031104 | 73 | 83 | 2.6 | 6.1 | 0.00 | 0.00 | 0.00 | 58 | 1028.4 |
| 20260510030604 | 73 | 64 | 4.3 | 6.1 | 0.00 | 0.00 | 0.00 | 58 | 1028.4 |
| 20260510030104 | 73 | 71 | 1.7 | 6.1 | 0.00 | 0.00 | 0.00 | 59 | 1028.5 |
| 20260510024603 | 72 | 261 | 2.6 | 5.2 | 0.00 | 0.00 | 0.00 | 58 | 1028.6 |
| 20260510024104 | 72 | 97 | 2.6 | 7.0 | 0.00 | 0.00 | 0.00 | 59 | 1028.6 |
| 20260510023104 | 72 | 124 | 1.7 | 6.1 | 0.00 | 0.00 | 0.00 | 60 | 1028.7 |
| 20260510022604 | 72 | 216 | 4.3 | 6.1 | 0.00 | 0.00 | 0.00 | 58 | 1028.8 |
| 20260510022104 | 73 | 64 | 0.9 | 2.6 | 0.00 | 0.00 | 0.00 | 58 | 1029.0 |
| 20260510021604 | 72 | 85 | 2.6 | 5.2 | 0.00 | 0.00 | 0.00 | 60 | 1029.0 |
| 20260510021104 | 71 | 119 | 1.7 | 5.2 | 0.00 | 0.00 | 0.00 | 60 | 1029.1 |
| 20260510020604 | 71 | 149 | 3.5 | 6.1 | 0.00 | 0.00 | 0.00 | 61 | 1029.1 |
| 20260510020104 | 71 | 164 | 1.7 | 5.2 | 0.00 | 0.00 | 0.00 | 60 | 1029.1 |
| 20260510015604 | 71 | 252 | 2.6 | 4.3 | 0.00 | 0.00 | 0.00 | 60 | 1029.2 |
| 20260510015104 | 71 | 225 | 1.7 | 2.6 | 0.00 | 0.00 | 0.00 | 59 | 1029.3 |
| 20260510014604 | 70 | 225 | 0.9 | 2.6 | 0.00 | 0.00 | 0.00 | 60 | 1029.4 |
| 20260510014104 | 72 | 170 | 0.9 | 2.6 | 0.00 | 0.00 | 0.00 | 58 | 1029.5 |
| 20260510013103 | 70 | 295 | 2.6 | 4.3 | 0.00 | 0.00 | 0.00 | 59 | 1029.5 |
| 20260510012604 | 70 | 14 | 3.5 | 6.1 | 0.00 | 0.00 | 0.00 | 59 | 1029.6 |
| 20260510011604 | 70 | 314 | 1.7 | 5.2 | 0.00 | 0.00 | 0.00 | 61 | 1029.8 |
| 20260510011104 | 69 | 330 | 2.6 | 6.1 | 0.00 | 0.00 | 0.00 | 62 | 1029.9 |
| 20260510010604 | 69 | 357 | 0.9 | 4.3 | 0.00 | 0.00 | 0.00 | 61 | 1030.0 |
| 20260510010104 | 69 | 286 | 2.6 | 5.2 | 0.00 | 0.00 | 0.00 | 62 | 1030.2 |
| 20260510005104 | 69 | 327 | 2.6 | 5.2 | 0.00 | 0.00 | 0.00 | 62 | 1030.1 |
| 20260510004604 | 68 | 334 | 2.6 | 5.2 | 0.00 | 0.00 | 0.00 | 62 | 1030.1 |
| 20260510003603 | 67 | 310 | 1.7 | 5.2 | 0.00 | 0.00 | 0.00 | 64 | 1030.2 |
| 20260510003103 | 67 | 349 | 2.6 | 5.2 | 0.00 | 0.00 | 0.00 | 65 | 1030.2 |
| 20260510002603 | 67 | 333 | 1.7 | 2.6 | 0.00 | 0.00 | 0.00 | 65 | 1030.1 |
| 20260510002104 | 66 | 291 | 0.9 | 4.3 | 0.00 | 0.00 | 0.00 | 66 | 1030.2 |
| 20260510001603 | 65 | 294 | 0.9 | 2.6 | 0.00 | 0.00 | 0.00 | 66 | 1030.1 |
| 20260510001104 | 65 | 290 | 1.7 | 2.6 | 0.00 | 0.00 | 0.00 | 67 | 1030.0 |
| 20260510000604 | 64 | 290 | 2.6 | 4.3 | 0.00 | 0.00 | 0.00 | 67 | 1030.0 |
| 20260510000103 | 65 | 330 | 1.7 | 2.6 | 0.00 | 0.00 | 0.00 | 68 | 1029.9 |
| 20260509235604 | 64 | 335 | 2.6 | 5.2 | 0.00 | 0.00 | 0.00 | 69 | 1029.9 |
| 20260509234104 | 62 | 337 | 2.6 | 5.2 | 0.00 | 0.00 | 0.00 | 71 | 1029.9 |
| 20260509233604 | 62 | 291 | 0.9 | 4.3 | 0.00 | 0.00 | 0.00 | 72 | 1029.9 |
| 20260509232104 | 60 | 291 | 2.6 | 6.1 | 0.00 | 0.00 | 0.00 | 74 | 1029.8 |
| 20260509231604 | 59 | 306 | 1.7 | 6.1 | 0.00 | 0.00 | 0.00 | 75 | 1030.0 |
| 20260509231105 | 59 | 291 | 1.7 | 6.1 | 0.00 | 0.00 | 0.00 | 75 | 1029.9 |
| 20260509230604 | 59 | 290 | 2.6 | 2.6 | 0.00 | 0.00 | 0.00 | 76 | 1030.0 |
| 20260509225604 | 58 | 327 | 1.7 | 5.2 | 0.00 | 0.00 | 0.00 | 79 | 1030.0 |
| 20260509225104 | 57 | 328 | 2.6 | 5.2 | 0.00 | 0.00 | 0.00 | 79 | 1029.9 |
| 20260509224605 | 56 | 298 | 2.6 | 4.3 | 0.00 | 0.00 | 0.00 | 79 | 1029.9 |
| 20260509224104 | 56 | 290 | 2.6 | 4.3 | 0.00 | 0.00 | 0.00 | 80 | 1029.9 |
| 20260509223603 | 56 | 305 | 2.6 | 4.3 | 0.00 | 0.00 | 0.00 | 80 | 1029.9 |
| 20260509223103 | 56 | 287 | 1.7 | 4.3 | 0.00 | 0.00 | 0.00 | 82 | 1029.8 |
| 20260509222603 | 55 | 312 | 1.7 | 2.6 | 0.00 | 0.00 | 0.00 | 83 | 1029.8 |
| 20260509222104 | 54 | 296 | 2.6 | 5.2 | 0.00 | 0.00 | 0.00 | 84 | 1029.9 |
| 20260509221104 | 54 | 318 | 2.6 | 5.2 | 0.00 | 0.00 | 0.00 | 86 | 1029.7 |
| 20260509220604 | 53 | 300 | 1.7 | 2.6 | 0.00 | 0.00 | 0.00 | 86 | 1029.6 |
| 20260509220104 | 53 | 300 | 1.7 | 2.6 | 0.00 | 0.00 | 0.00 | 87 | 1029.7 |
| 20260509215604 | 52 | 297 | 2.6 | 2.6 | 0.00 | 0.00 | 0.00 | 88 | 1029.7 |
| 20260509215104 | 52 | 298 | 2.6 | 4.3 | 0.00 | 0.00 | 0.00 | 88 | 1029.5 |
| 20260509214604 | 51 | 286 | 3.5 | 5.2 | 0.00 | 0.00 | 0.00 | 89 | 1029.4 |
| 20260509214103 | 51 | 287 | 2.6 | 6.1 | 0.00 | 0.00 | 0.00 | 89 | 1029.4 |
| 20260509213604 | 51 | 294 | 2.6 | 4.3 | 0.00 | 0.00 | 0.00 | 89 | 1029.5 |
| 20260509213104 | 50 | 297 | 1.7 | 2.6 | 0.00 | 0.00 | 0.00 | 90 | 1029.4 |
| 20260509212104 | 50 | 304 | 1.7 | 2.6 | 0.00 | 0.00 | 0.00 | 91 | 1029.3 |
| 20260509211103 | 50 | 304 | 0.9 | 1.7 | 0.00 | 0.00 | 0.00 | 91 | 1029.2 |
| 20260509210604 | 49 | 296 | 0.9 | 2.6 | 0.00 | 0.00 | 0.00 | 91 | 1029.1 |
| 20260509205604 | 49 | 299 | 1.7 | 2.6 | 0.00 | 0.00 | 0.00 | 91 | 1029.1 |
| 20260509205104 | 49 | 299 | 1.7 | 2.6 | 0.00 | 0.00 | 0.00 | 91 | 1029.0 |
| 20260509204604 | 49 | 266 | 0.9 | 2.6 | 0.00 | 0.00 | 0.00 | 90 | 1028.9 |
| 20260509204104 | 49 | 325 | 1.7 | 2.6 | 0.00 | 0.00 | 0.00 | 90 | 1028.9 |
| 20260509203104 | 49 | 336 | 1.7 | 2.6 | 0.00 | 0.00 | 0.00 | 90 | 1028.8 |
| 20260509202604 | 49 | 309 | 1.7 | 2.6 | 0.00 | 0.00 | 0.00 | 90 | 1028.8 |
| 20260509202104 | 49 | 309 | 2.6 | 2.6 | 0.00 | 0.00 | 0.00 | 90 | 1028.7 |
| 20260509201604 | 49 | 282 | 1.7 | 2.6 | 0.00 | 0.00 | 0.00 | 90 | 1028.7 |
| 20260509201104 | 49 | 282 | 1.7 | 2.6 | 0.00 | 0.00 | 0.00 | 90 | 1028.6 |
| 20260509200604 | 49 | 282 | 1.7 | 2.6 | 0.00 | 0.00 | 0.00 | 90 | 1028.5 |
| 20260509200104 | 49 | 282 | 0.9 | 1.7 | 0.00 | 0.00 | 0.00 | 90 | 1028.5 |
| 20260509195604 | 49 | 282 | 1.7 | 2.6 | 0.00 | 0.00 | 0.00 | 90 | 1028.5 |
| 20260509195104 | 50 | 286 | 1.7 | 2.6 | 0.00 | 0.00 | 0.00 | 90 | 1028.4 |
| 20260509194604 | 49 | 311 | 0.9 | 2.6 | 0.00 | 0.00 | 0.00 | 90 | 1028.2 |
| 20260509194104 | 49 | 311 | 0.0 | 0.9 | 0.00 | 0.00 | 0.00 | 90 | 1028.2 |
| 20260509193604 | 49 | 311 | 0.9 | 0.9 | 0.00 | 0.00 | 0.00 | 90 | 1028.2 |
| 20260509193104 | 49 | 311 | 0.0 | 0.9 | 0.00 | 0.00 | 0.00 | 90 | 1028.1 |
| 20260509192604 | 49 | 311 | 0.0 | 1.7 | 0.00 | 0.00 | 0.00 | 90 | 1028.0 |
| 20260509191604 | 50 | 311 | 0.9 | 0.9 | 0.00 | 0.00 | 0.00 | 90 | 1027.8 |
| 20260509191104 | 50 | 311 | 0.9 | 1.7 | 0.00 | 0.00 | 0.00 | 90 | 1027.7 |
| 20260509190604 | 50 | 310 | 0.0 | 0.9 | 0.00 | 0.00 | 0.00 | 90 | 1027.7 |
| 20260509185604 | 50 | 311 | 1.7 | 2.6 | 0.00 | 0.00 | 0.00 | 90 | 1027.5 |
| 20260509185104 | 50 | 310 | 1.7 | 2.6 | 0.00 | 0.00 | 0.00 | 90 | 1027.5 |
| 20260509184604 | 50 | 311 | 1.7 | 2.6 | 0.00 | 0.00 | 0.00 | 90 | 1027.5 |
| 20260509183604 | 50 | 311 | 1.7 | 2.6 | 0.00 | 0.00 | 0.00 | 90 | 1027.5 |
| 20260509183103 | 50 | 310 | 1.7 | 2.6 | 0.00 | 0.00 | 0.00 | 90 | 1027.4 |
| 20260509182604 | 50 | 311 | 1.7 | 2.6 | 0.00 | 0.00 | 0.00 | 90 | 1027.4 |
| 20260509182104 | 50 | 256 | 0.9 | 2.6 | 0.00 | 0.00 | 0.00 | 89 | 1027.3 |
| 20260509181604 | 50 | 256 | 1.7 | 2.6 | 0.00 | 0.00 | 0.00 | 89 | 1027.2 |
| 20260509181104 | 50 | 256 | 0.9 | 2.6 | 0.00 | 0.00 | 0.00 | 89 | 1027.3 |
| 20260509180604 | 50 | 256 | 0.0 | 0.9 | 0.00 | 0.00 | 0.00 | 89 | 1027.3 |
| 20260509180104 | 50 | 256 | 0.0 | 0.0 | 0.00 | 0.00 | 0.00 | 89 | 1027.3 |
| 20260509175604 | 50 | 256 | 0.0 | 0.9 | 0.00 | 0.00 | 0.00 | 89 | 1027.3 |
| 20260509175104 | 50 | 256 | 0.9 | 1.7 | 0.00 | 0.00 | 0.00 | 89 | 1027.2 |
| 20260509174604 | 50 | 256 | 0.9 | 0.9 | 0.00 | 0.00 | 0.00 | 89 | 1027.2 |
| 20260509174104 | 50 | 256 | 0.9 | 1.7 | 0.00 | 0.00 | 0.00 | 89 | 1027.2 |
| 20260509173604 | 50 | 256 | 0.9 | 1.7 | 0.00 | 0.00 | 0.00 | 89 | 1027.2 |
| 20260509173104 | 51 | 256 | 0.0 | 0.9 | 0.00 | 0.00 | 0.00 | 89 | 1027.1 |
| 20260509172605 | 51 | 256 | 0.9 | 1.7 | 0.00 | 0.00 | 0.00 | 89 | 1027.1 |
| 20260509172103 | 51 | 256 | 0.9 | 1.7 | 0.00 | 0.00 | 0.00 | 89 | 1027.2 |
| 20260509171104 | 51 | 256 | 0.9 | 1.7 | 0.00 | 0.00 | 0.00 | 89 | 1027.1 |
| 20260509170604 | 51 | 256 | 1.7 | 2.6 | 0.00 | 0.00 | 0.00 | 89 | 1027.2 |
| 20260509170104 | 51 | 256 | 1.7 | 2.6 | 0.00 | 0.00 | 0.00 | 89 | 1027.1 |
| 20260509165604 | 51 | 256 | 1.7 | 2.6 | 0.00 | 0.00 | 0.00 | 89 | 1027.1 |
| 20260509165104 | 51 | 256 | 0.9 | 1.7 | 0.00 | 0.00 | 0.00 | 88 | 1027.2 |
| 20260509164604 | 51 | 256 | 0.9 | 1.7 | 0.00 | 0.00 | 0.00 | 88 | 1027.2 |
| 20260509163603 | 51 | 256 | 0.9 | 1.7 | 0.00 | 0.00 | 0.00 | 88 | 1027.2 |
| 20260509163104 | 51 | 256 | 0.9 | 1.7 | 0.00 | 0.00 | 0.00 | 88 | 1027.1 |
| 20260509162605 | 51 | 256 | 0.9 | 1.7 | 0.00 | 0.00 | 0.00 | 88 | 1027.2 |
| 20260509162104 | 51 | 256 | 0.9 | 1.7 | 0.00 | 0.00 | 0.00 | 88 | 1027.2 |
| 20260509161604 | 52 | 256 | 0.9 | 0.9 | 0.00 | 0.00 | 0.00 | 87 | 1027.3 |
| 20260509161104 | 52 | 256 | 0.9 | 1.7 | 0.00 | 0.00 | 0.00 | 87 | 1027.3 |
| 20260509160104 | 52 | 256 | 0.0 | 0.9 | 0.00 | 0.00 | 0.00 | 87 | 1027.3 |
| 20260509155604 | 52 | 256 | 0.0 | 0.9 | 0.00 | 0.00 | 0.00 | 87 | 1027.2 |
| 20260509155104 | 52 | 256 | 0.0 | 0.0 | 0.00 | 0.00 | 0.00 | 87 | 1027.2 |
| 20260509154604 | 52 | 256 | 0.0 | 0.9 | 0.00 | 0.00 | 0.00 | 87 | 1027.2 |
| 20260509154105 | 52 | 256 | 0.0 | 0.9 | 0.00 | 0.00 | 0.00 | 87 | 1027.2 |
| 20260509153604 | 52 | 256 | 0.9 | 1.7 | 0.00 | 0.00 | 0.00 | 87 | 1027.2 |
| 20260509153104 | 52 | 256 | 0.9 | 1.7 | 0.00 | 0.00 | 0.00 | 87 | 1027.2 |
| 20260509152604 | 52 | 256 | 1.7 | 2.6 | 0.00 | 0.00 | 0.00 | 87 | 1027.1 |
| 20260509152104 | 53 | 256 | 1.7 | 2.6 | 0.00 | 0.00 | 0.00 | 87 | 1027.2 |
| 20260509151604 | 53 | 256 | 1.7 | 2.6 | 0.00 | 0.00 | 0.00 | 87 | 1027.3 |
| 20260509151104 | 53 | 257 | 2.6 | 4.3 | 0.00 | 0.00 | 0.00 | 87 | 1027.3 |
| 20260509150604 | 53 | 265 | 2.6 | 4.3 | 0.00 | 0.00 | 0.00 | 87 | 1027.3 |
| 20260509150104 | 52 | 247 | 2.6 | 4.3 | 0.00 | 0.00 | 0.00 | 87 | 1027.3 |
| 20260509145604 | 52 | 260 | 2.6 | 4.3 | 0.00 | 0.00 | 0.00 | 87 | 1027.3 |
| 20260509145103 | 52 | 256 | 1.7 | 4.3 | 0.00 | 0.00 | 0.00 | 87 | 1027.2 |
| 20260509144603 | 52 | 243 | 1.7 | 2.6 | 0.00 | 0.00 | 0.00 | 87 | 1027.2 |
| 20260509144104 | 52 | 243 | 1.7 | 2.6 | 0.00 | 0.00 | 0.00 | 87 | 1027.2 |
| 20260509143603 | 52 | 243 | 0.9 | 2.6 | 0.00 | 0.00 | 0.00 | 86 | 1027.2 |
| 20260509143103 | 52 | 243 | 0.9 | 2.6 | 0.00 | 0.00 | 0.00 | 86 | 1027.2 |
| 20260509142604 | 53 | 243 | 1.7 | 2.6 | 0.00 | 0.00 | 0.00 | 87 | 1027.2 |
| 20260509142104 | 53 | 243 | 2.6 | 4.3 | 0.00 | 0.00 | 0.00 | 87 | 1027.2 |
| 20260509141604 | 53 | 243 | 1.7 | 2.6 | 0.00 | 0.00 | 0.00 | 87 | 1027.1 |
| 20260509141105 | 53 | 243 | 1.7 | 2.6 | 0.00 | 0.00 | 0.00 | 86 | 1027.1 |
| 20260509140104 | 53 | 243 | 1.7 | 4.3 | 0.00 | 0.00 | 0.00 | 86 | 1027.2 |
| 20260509135604 | 53 | 243 | 1.7 | 2.6 | 0.00 | 0.00 | 0.00 | 87 | 1027.2 |
| 20260509135105 | 53 | 243 | 0.9 | 2.6 | 0.00 | 0.00 | 0.00 | 87 | 1027.3 |
| 20260509134604 | 53 | 243 | 0.9 | 2.6 | 0.00 | 0.00 | 0.00 | 86 | 1027.3 |
| 20260509133604 | 53 | 243 | 1.7 | 2.6 | 0.00 | 0.00 | 0.00 | 86 | 1027.3 |
| 20260509133104 | 53 | 243 | 0.9 | 2.6 | 0.00 | 0.00 | 0.00 | 86 | 1027.3 |
| 20260509132604 | 53 | 243 | 1.7 | 2.6 | 0.00 | 0.00 | 0.00 | 86 | 1027.3 |
| 20260509132104 | 53 | 243 | 0.9 | 2.6 | 0.00 | 0.00 | 0.00 | 86 | 1027.3 |
| 20260509131604 | 53 | 243 | 1.7 | 2.6 | 0.00 | 0.00 | 0.00 | 86 | 1027.4 |
| 20260509130604 | 53 | 243 | 1.7 | 2.6 | 0.00 | 0.00 | 0.00 | 86 | 1027.3 |
| 20260509130104 | 53 | 243 | 1.7 | 2.6 | 0.00 | 0.00 | 0.00 | 86 | 1027.3 |
| 20260509125604 | 53 | 243 | 1.7 | 2.6 | 0.00 | 0.00 | 0.00 | 86 | 1027.3 |
| 20260509125104 | 53 | 243 | 0.9 | 1.7 | 0.00 | 0.00 | 0.00 | 85 | 1027.4 |
| 20260509124604 | 53 | 243 | 0.0 | 1.7 | 0.00 | 0.00 | 0.00 | 85 | 1027.4 |
| 20260509123605 | 54 | 243 | 1.7 | 2.6 | 0.00 | 0.00 | 0.00 | 84 | 1027.4 |
| 20260509123104 | 54 | 243 | 1.7 | 2.6 | 0.00 | 0.00 | 0.00 | 84 | 1027.3 |
| 20260509122604 | 54 | 241 | 2.6 | 4.3 | 0.00 | 0.00 | 0.00 | 84 | 1027.4 |
| 20260509122104 | 54 | 251 | 1.7 | 2.6 | 0.00 | 0.00 | 0.00 | 84 | 1027.4 |
| 20260509121604 | 54 | 251 | 1.7 | 2.6 | 0.00 | 0.00 | 0.00 | 84 | 1027.5 |
| 20260509121104 | 54 | 251 | 1.7 | 2.6 | 0.00 | 0.00 | 0.00 | 83 | 1027.5 |
| 20260509120104 | 55 | 251 | 1.7 | 2.6 | 0.00 | 0.00 | 0.00 | 83 | 1027.5 |
| 20260509115604 | 55 | 251 | 1.7 | 2.6 | 0.00 | 0.00 | 0.00 | 83 | 1027.5 |
| 20260509115105 | 55 | 251 | 1.7 | 2.6 | 0.00 | 0.00 | 0.00 | 83 | 1027.4 |
| 20260509114604 | 55 | 251 | 1.7 | 2.6 | 0.00 | 0.00 | 0.00 | 83 | 1027.4 |
| 20260509114104 | 55 | 251 | 1.7 | 2.6 | 0.00 | 0.00 | 0.00 | 83 | 1027.4 |
| 20260509113604 | 55 | 248 | 1.7 | 2.6 | 0.00 | 0.00 | 0.00 | 83 | 1027.4 |
| 20260509113104 | 55 | 235 | 2.6 | 2.6 | 0.00 | 0.00 | 0.00 | 83 | 1027.3 |
| 20260509112604 | 55 | 227 | 1.7 | 2.6 | 0.00 | 0.00 | 0.00 | 83 | 1027.4 |
| 20260509112104 | 55 | 227 | 1.7 | 2.6 | 0.00 | 0.00 | 0.00 | 82 | 1027.3 |
| 20260509111605 | 55 | 227 | 1.7 | 2.6 | 0.00 | 0.00 | 0.00 | 82 | 1027.4 |
| 20260509111105 | 55 | 221 | 2.6 | 2.6 | 0.00 | 0.00 | 0.00 | 82 | 1027.4 |
| 20260509110105 | 56 | 221 | 1.7 | 2.6 | 0.00 | 0.00 | 0.00 | 81 | 1027.2 |
| 20260509105605 | 56 | 221 | 1.7 | 2.6 | 0.00 | 0.00 | 0.00 | 81 | 1027.2 |
| 20260509105104 | 56 | 221 | 1.7 | 2.6 | 0.00 | 0.00 | 0.00 | 80 | 1027.2 |
| 20260509104603 | 56 | 221 | 0.9 | 2.6 | 0.00 | 0.00 | 0.00 | 80 | 1027.3 |
| 20260509104108 | 57 | 221 | 1.7 | 2.6 | 0.00 | 0.00 | 0.00 | 80 | 1027.3 |
| 20260509103604 | 57 | 220 | 1.7 | 2.6 | 0.00 | 0.00 | 0.00 | 79 | 1027.3 |
| 20260509103104 | 57 | 221 | 1.7 | 2.6 | 0.00 | 0.00 | 0.00 | 79 | 1027.2 |
| 20260509102604 | 57 | 221 | 0.9 | 2.6 | 0.00 | 0.00 | 0.00 | 79 | 1027.1 |
| 20260509102105 | 57 | 221 | 1.7 | 2.6 | 0.00 | 0.00 | 0.00 | 78 | 1026.9 |
| 20260509101604 | 57 | 221 | 1.7 | 2.6 | 0.00 | 0.00 | 0.00 | 78 | 1026.9 |
| 20260509101105 | 58 | 221 | 1.7 | 2.6 | 0.00 | 0.00 | 0.00 | 78 | 1026.8 |
| 20260509100105 | 58 | 220 | 2.6 | 2.6 | 0.00 | 0.00 | 0.00 | 77 | 1026.9 |
| 20260509095604 | 59 | 221 | 1.7 | 2.6 | 0.00 | 0.00 | 0.00 | 76 | 1026.8 |
| 20260509095105 | 59 | 99 | 0.9 | 2.6 | 0.00 | 0.00 | 0.00 | 76 | 1026.8 |
| 20260509094605 | 59 | 99 | 1.7 | 2.6 | 0.00 | 0.00 | 0.00 | 76 | 1026.7 |
| 20260509093605 | 59 | 99 | 0.9 | 1.7 | 0.00 | 0.00 | 0.00 | 75 | 1026.6 |
| 20260509093104 | 59 | 99 | 0.9 | 1.7 | 0.00 | 0.00 | 0.00 | 75 | 1026.7 |
| 20260509092604 | 59 | 99 | 0.9 | 1.7 | 0.00 | 0.00 | 0.00 | 75 | 1026.6 |
| 20260509092104 | 59 | 99 | 0.0 | 0.9 | 0.00 | 0.00 | 0.00 | 74 | 1026.5 |
| 20260509091604 | 60 | 99 | 0.0 | 0.9 | 0.00 | 0.00 | 0.00 | 74 | 1026.5 |
| 20260509091104 | 60 | 99 | 0.0 | 0.9 | 0.00 | 0.00 | 0.00 | 73 | 1026.3 |
| 20260509090104 | 60 | 99 | 0.9 | 1.7 | 0.00 | 0.00 | 0.00 | 73 | 1026.2 |
| 20260509085605 | 61 | 99 | 0.9 | 2.6 | 0.00 | 0.00 | 0.00 | 72 | 1026.1 |
| 20260509085103 | 61 | 99 | 0.9 | 2.6 | 0.00 | 0.00 | 0.00 | 72 | 1026.0 |
| 20260509084604 | 61 | 99 | 0.9 | 1.7 | 0.00 | 0.00 | 0.00 | 72 | 1026.0 |
| 20260509084104 | 61 | 99 | 0.0 | 0.0 | 0.00 | 0.00 | 0.00 | 71 | 1025.9 |
| 20260509083604 | 62 | 99 | 0.0 | 0.9 | 0.00 | 0.00 | 0.00 | 71 | 1025.7 |
| 20260509083104 | 62 | 99 | 0.9 | 1.7 | 0.00 | 0.00 | 0.00 | 70 | 1025.6 |
| 20260509082603 | 62 | 99 | 0.9 | 1.7 | 0.00 | 0.00 | 0.00 | 70 | 1025.6 |
| 20260509081104 | 62 | 99 | 0.9 | 2.6 | 0.00 | 0.00 | 0.00 | 69 | 1025.3 |
| 20260509080604 | 63 | 99 | 0.9 | 2.6 | 0.00 | 0.00 | 0.00 | 68 | 1025.3 |
| 20260509080104 | 63 | 99 | 0.0 | 0.9 | 0.00 | 0.00 | 0.00 | 68 | 1025.2 |
| 20260509075104 | 63 | 99 | 0.9 | 2.6 | 0.00 | 0.00 | 0.00 | 68 | 1025.1 |
| 20260509074604 | 63 | 99 | 1.7 | 2.6 | 0.00 | 0.00 | 0.00 | 67 | 1025.0 |
| 20260509074104 | 63 | 99 | 0.9 | 1.7 | 0.00 | 0.00 | 0.00 | 67 | 1025.0 |
| 20260509073605 | 63 | 99 | 0.9 | 1.7 | 0.00 | 0.00 | 0.00 | 67 | 1025.0 |
| 20260509073104 | 63 | 99 | 0.9 | 2.6 | 0.00 | 0.00 | 0.00 | 66 | 1024.9 |
| 20260509072604 | 64 | 99 | 0.9 | 2.6 | 0.00 | 0.00 | 0.00 | 66 | 1024.9 |
| 20260509072104 | 64 | 99 | 0.9 | 2.6 | 0.00 | 0.00 | 0.00 | 66 | 1024.9 |
| 20260509071104 | 64 | 106 | 2.6 | 6.1 | 0.00 | 0.00 | 0.00 | 65 | 1024.8 |
| 20260509070604 | 64 | 105 | 3.5 | 6.1 | 0.00 | 0.00 | 0.00 | 64 | 1024.7 |
| 20260509070104 | 65 | 108 | 4.3 | 7.8 | 0.00 | 0.00 | 0.00 | 64 | 1024.7 |
| 20260509065603 | 65 | 109 | 4.3 | 7.8 | 0.00 | 0.00 | 0.00 | 63 | 1024.7 |
| 20260509065104 | 65 | 106 | 2.6 | 7.0 | 0.00 | 0.00 | 0.00 | 63 | 1024.6 |
| 20260509064603 | 65 | 112 | 5.2 | 7.8 | 0.00 | 0.00 | 0.00 | 62 | 1024.6 |
| 20260509064103 | 66 | 106 | 5.2 | 8.7 | 0.00 | 0.00 | 0.00 | 62 | 1024.5 |
| 20260509063603 | 66 | 105 | 7.0 | 11.3 | 0.00 | 0.00 | 0.00 | 62 | 1024.4 |
| 20260509062603 | 66 | 116 | 4.3 | 7.0 | 0.00 | 0.00 | 0.00 | 62 | 1024.4 |
| 20260509062103 | 66 | 88 | 4.3 | 10.4 | 0.00 | 0.00 | 0.00 | 61 | 1024.3 |
| 20260509061604 | 67 | 112 | 6.1 | 10.4 | 0.00 | 0.00 | 0.00 | 61 | 1024.3 |
| 20260509061103 | 67 | 83 | 5.2 | 10.4 | 0.00 | 0.00 | 0.00 | 61 | 1024.2 |
| 20260509060603 | 67 | 82 | 7.0 | 10.4 | 0.00 | 0.00 | 0.00 | 60 | 1024.2 |
| 20260509060103 | 67 | 92 | 7.0 | 10.4 | 0.00 | 0.00 | 0.00 | 60 | 1024.0 |
| 20260509055603 | 67 | 107 | 7.0 | 11.3 | 0.00 | 0.00 | 0.00 | 59 | 1024.0 |
| 20260509054603 | 68 | 98 | 6.1 | 12.2 | 0.00 | 0.00 | 0.00 | 58 | 1023.9 |
| 20260509053604 | 68 | 121 | 6.1 | 10.4 | 0.00 | 0.00 | 0.00 | 57 | 1023.8 |
| 20260509053104 | 68 | 90 | 6.1 | 10.4 | 0.00 | 0.00 | 0.00 | 57 | 1023.8 |
| 20260509052104 | 69 | 70 | 6.1 | 11.3 | 0.00 | 0.00 | 0.00 | 57 | 1023.7 |
| 20260509051604 | 69 | 78 | 6.1 | 11.3 | 0.00 | 0.00 | 0.00 | 56 | 1023.7 |
| 20260509051104 | 69 | 86 | 7.8 | 11.3 | 0.00 | 0.00 | 0.00 | 56 | 1023.7 |
| 20260509050604 | 69 | 99 | 7.8 | 10.4 | 0.00 | 0.00 | 0.00 | 56 | 1023.7 |
| 20260509045604 | 70 | 84 | 8.7 | 12.2 | 0.00 | 0.00 | 0.00 | 55 | 1023.6 |
| 20260509043604 | 70 | 77 | 5.2 | 10.4 | 0.00 | 0.00 | 0.00 | 54 | 1023.5 |
| 20260509043104 | 70 | 83 | 7.8 | 10.4 | 0.00 | 0.00 | 0.00 | 53 | 1023.5 |
| 20260509042604 | 71 | 70 | 4.3 | 7.8 | 0.00 | 0.00 | 0.00 | 53 | 1023.5 |
| 20260509042104 | 71 | 290 | 0.9 | 2.6 | 0.00 | 0.00 | 0.00 | 47 | 1023.5 |
| 20260509041604 | 72 | 290 | 1.7 | 5.2 | 0.00 | 0.00 | 0.00 | 47 | 1023.4 |
| 20260509041104 | 72 | 273 | 2.6 | 6.1 | 0.00 | 0.00 | 0.00 | 47 | 1023.4 |
| 20260509040604 | 72 | 271 | 2.6 | 7.0 | 0.00 | 0.00 | 0.00 | 46 | 1023.4 |
| 20260509040104 | 72 | 295 | 1.7 | 5.2 | 0.00 | 0.00 | 0.00 | 48 | 1023.4 |
| 20260509035605 | 71 | 295 | 1.7 | 6.1 | 0.00 | 0.00 | 0.00 | 48 | 1023.5 |
| 20260509034604 | 71 | 294 | 5.2 | 7.0 | 0.00 | 0.00 | 0.00 | 47 | 1023.5 |